Time;durP1;ratioP1;P1;durP2;ratioP2;P2;SDS_P1;SDS_P2;PMS_P1;PMS_P2;Temp;Humidity;BMP_temperature;BMP_pressure;BME280_temperature;BME280_humidity;BME280_pressure;Samples;Min_cycle;Max_cycle;Signal;HPM_P1;HPM_P2
2021/07/18 00:01:07;;;;;;;;;7.50;7.50;;;;;-146.80;100.00;64830.25;5055598;28;45236;-58
2021/07/18 00:03:32;;;;;;;;;7.75;7.75;;;;;-146.80;100.00;64830.25;5055251;28;45369;-60
2021/07/18 00:05:58;;;;;;;;;10.00;7.75;;;;;-146.80;100.00;64830.25;5055758;28;45980;-57
2021/07/18 00:08:23;;;;;;;;;7.00;5.75;;;;;-146.80;100.00;64830.25;5055938;28;45266;-57
2021/07/18 00:10:49;;;;;;;;;10.25;8.00;;;;;-146.80;100.00;64830.25;5055840;28;45536;-60
2021/07/18 00:13:15;;;;;;;;;10.75;8.00;;;;;-146.80;100.00;64830.25;5056803;28;46818;-59
2021/07/18 00:15:41;;;;;;;;;11.00;8.25;;;;;-146.80;100.00;64830.25;5058231;28;45352;-61
2021/07/18 00:18:08;;;;;;;;;9.50;7.50;;;;;-146.80;100.00;64830.25;5059223;28;45330;-56
2021/07/18 00:20:34;;;;;;;;;8.00;7.50;;;;;-146.80;100.00;64830.25;5059573;28;45385;-57
2021/07/18 00:22:59;;;;;;;;;6.00;6.00;;;;;-146.80;100.00;64830.25;5059196;28;46148;-55
2021/07/18 00:25:24;;;;;;;;;8.00;5.75;;;;;-146.80;100.00;64830.25;5059041;28;45456;-59
2021/07/18 00:27:50;;;;;;;;;8.25;8.25;;;;;-146.80;100.00;64830.25;5059216;28;45347;-55
2021/07/18 00:30:15;;;;;;;;;8.25;6.75;;;;;-146.80;100.00;64830.25;5091872;27;45639;-57
2021/07/18 00:32:42;;;;;;;;;6.25;6.25;;;;;-146.80;100.00;64830.25;5058037;28;46254;-55
2021/07/18 00:35:08;;;;;;;;;11.50;7.75;;;;;-146.80;100.00;64830.25;5057452;28;45710;-54
2021/07/18 00:37:34;;;;;;;;;8.25;8.00;;;;;-146.80;100.00;64830.25;5058834;28;45399;-59
2021/07/18 00:39:59;;;;;;;;;9.25;9.25;;;;;-146.80;100.00;64830.25;5059224;28;45292;-54
2021/07/18 00:42:24;;;;;;;;;9.75;8.50;;;;;-146.80;100.00;64830.25;5058322;28;46110;-60
2021/07/18 00:44:50;;;;;;;;;9.25;8.25;;;;;-146.80;100.00;64830.25;5057347;28;45362;-56
2021/07/18 00:47:15;;;;;;;;;10.25;8.75;;;;;-146.80;100.00;64830.25;5057586;28;45667;-59
2021/07/18 00:49:41;;;;;;;;;5.25;4.25;;;;;-146.80;100.00;64830.25;5059218;28;45409;-57
2021/07/18 00:52:06;;;;;;;;;9.25;8.00;;;;;-146.80;100.00;64830.25;5091284;27;47098;-55
2021/07/18 00:54:33;;;;;;;;;9.25;8.25;;;;;-146.80;100.00;64830.25;5057141;28;45382;-58
2021/07/18 00:57:02;;;;;;;;;8.50;7.50;;;;;-146.80;100.00;64830.25;5058768;28;45398;-56
2021/07/18 00:59:28;;;;;;;;;13.75;9.00;;;;;-146.80;100.00;64830.25;5057529;28;45366;-56
2021/07/18 01:01:54;;;;;;;;;11.00;10.00;;;;;-146.80;100.00;64830.25;5058177;28;46377;-61
2021/07/18 01:04:20;;;;;;;;;10.50;9.00;;;;;-146.80;100.00;64830.25;5058244;28;45489;-55
2021/07/18 01:06:45;;;;;;;;;9.00;8.00;;;;;-146.80;100.00;64830.25;5058777;28;45393;-56
2021/07/18 01:09:11;;;;;;;;;11.25;10.00;;;;;-146.80;100.00;64830.25;5058768;28;45598;-57
2021/07/18 01:11:36;;;;;;;;;10.25;8.50;;;;;-146.80;100.00;64830.25;5058298;28;46111;-60
2021/07/18 01:14:02;;;;;;;;;12.25;9.75;;;;;-146.80;100.00;64830.25;5058067;28;45373;-53
2021/07/18 01:16:27;;;;;;;;;7.25;7.25;;;;;-146.80;100.00;64830.25;5058298;28;45366;-57
2021/07/18 01:18:53;;;;;;;;;11.25;10.25;;;;;-146.80;100.00;64830.25;5058371;28;45532;-52
2021/07/18 01:21:23;;;;;;;;;11.00;10.50;;;;;-146.80;100.00;64830.25;5057995;28;45775;-56
2021/07/18 01:23:48;;;;;;;;;13.00;11.00;;;;;-146.80;100.00;64830.25;5057843;28;45315;-58
2021/07/18 01:26:14;;;;;;;;;8.25;7.75;;;;;-146.80;100.00;64830.25;5061644;28;45464;-56
2021/07/18 01:28:40;;;;;;;;;12.75;9.00;;;;;-146.80;100.00;64830.25;5058334;28;45585;-57
2021/07/18 01:31:07;;;;;;;;;11.00;9.75;;;;;-146.80;100.00;64830.25;5056447;28;46069;-60
2021/07/18 01:33:33;;;;;;;;;11.50;10.25;;;;;-146.80;100.00;64830.25;5056493;28;45462;-57
2021/07/18 01:35:58;;;;;;;;;10.75;9.00;;;;;-146.80;100.00;64830.25;5058272;28;45315;-58
2021/07/18 01:38:23;;;;;;;;;14.75;11.00;;;;;-146.80;100.00;64830.25;5057999;28;45631;-56
2021/07/18 01:40:49;;;;;;;;;10.00;7.75;;;;;-146.80;100.00;64830.25;5057791;28;46311;-53
2021/07/18 01:43:16;;;;;;;;;11.25;9.50;;;;;-146.80;100.00;64830.25;5058160;28;45302;-57
2021/07/18 01:45:41;;;;;;;;;10.25;9.50;;;;;-146.80;100.00;64830.25;5057822;28;45443;-59
2021/07/18 01:48:07;;;;;;;;;8.00;6.25;;;;;-146.80;100.00;64830.25;5057812;28;45574;-56
2021/07/18 01:50:32;;;;;;;;;10.00;9.00;;;;;-146.80;100.00;64830.25;5057672;28;45581;-57
2021/07/18 01:52:59;;;;;;;;;12.25;10.75;;;;;-146.80;100.00;64830.25;5090316;27;45338;-55
2021/07/18 01:55:24;;;;;;;;;12.75;10.00;;;;;-146.80;100.00;64830.25;5056554;28;45465;-53
2021/07/18 01:57:50;;;;;;;;;8.00;7.00;;;;;-146.80;100.00;64830.25;5057832;28;45604;-56
2021/07/18 02:00:16;;;;;;;;;13.00;9.00;;;;;-146.80;100.00;64830.25;5056500;28;46197;-54
2021/07/18 02:02:46;;;;;;;;;11.00;9.25;;;;;-146.80;100.00;64830.25;5057426;28;45358;-60
2021/07/18 02:05:16;;;;;;;;;11.75;11.25;;;;;-146.80;100.00;64830.25;5057530;28;45173;-56
2021/07/18 02:07:45;;;;;;;;;11.00;9.00;;;;;-146.80;100.00;64830.25;5057530;28;45559;-56
2021/07/18 02:10:11;;;;;;;;;14.00;11.00;;;;;-146.80;100.00;64830.25;5057314;28;45268;-54
2021/07/18 02:12:37;;;;;;;;;10.25;8.75;;;;;-146.80;100.00;64830.25;5055974;28;45482;-53
2021/07/18 02:15:09;;;;;;;;;10.00;8.50;;;;;-146.80;100.00;64830.25;5057354;28;45240;-57
2021/07/18 02:17:35;;;;;;;;;8.75;6.50;;;;;-146.80;100.00;64830.25;5057560;28;45560;-57
2021/07/18 02:20:01;;;;;;;;;8.75;8.75;;;;;-146.80;100.00;64830.25;5055748;28;46469;-58
2021/07/18 02:22:44;;;;;;;;;9.00;9.00;;;;;-146.80;100.00;64830.25;5057200;28;45312;-57
2021/07/18 02:25:10;;;;;;;;;9.75;9.75;;;;;-146.80;100.00;64830.25;5057222;28;45254;-56
2021/07/18 02:27:36;;;;;;;;;11.25;8.50;;;;;-146.80;100.00;64830.25;5057121;28;45342;-57
2021/07/18 02:30:12;;;;;;;;;10.25;9.00;;;;;-146.80;100.00;64830.25;5055362;28;45920;-58
2021/07/18 02:32:38;;;;;;;;;12.50;10.50;;;;;-146.80;100.00;64830.25;5057006;28;45227;-55
2021/07/18 02:35:06;;;;;;;;;10.50;9.00;;;;;-146.80;100.00;64830.25;5057074;28;45263;-58
2021/07/18 02:37:32;;;;;;;;;12.00;10.50;;;;;-146.80;100.00;64830.25;5057100;28;45522;-56
2021/07/18 02:39:57;;;;;;;;;12.00;10.75;;;;;-146.80;100.00;64830.25;5056628;28;45493;-56
2021/07/18 02:42:23;;;;;;;;;13.25;11.00;;;;;-146.80;100.00;64830.25;5056601;28;45463;-54
2021/07/18 02:44:48;;;;;;;;;12.00;11.00;;;;;-146.80;100.00;64830.25;5057283;28;45409;-58
2021/07/18 02:47:13;;;;;;;;;8.00;7.00;;;;;-146.80;100.00;64830.25;5061718;28;45426;-63
2021/07/18 02:49:39;;;;;;;;;10.00;10.00;;;;;-146.80;100.00;64830.25;5075578;28;45926;-64
2021/07/18 02:52:04;;;;;;;;;8.75;8.75;;;;;-146.80;100.00;64830.25;5075984;27;45424;-62
2021/07/18 02:54:32;;;;;;;;;8.75;8.75;;;;;-146.80;100.00;64830.25;5077279;27;45274;-62
2021/07/18 02:56:57;;;;;;;;;11.25;9.75;;;;;-146.80;100.00;64830.25;5093304;27;45575;-62
2021/07/18 02:59:22;;;;;;;;;9.50;8.00;;;;;-146.80;100.00;64830.25;5076540;27;45326;-63
2021/07/18 03:01:48;;;;;;;;;8.00;7.75;;;;;-146.80;100.00;64830.25;5077244;28;45291;-66
2021/07/18 03:04:13;;;;;;;;;9.50;9.00;;;;;-146.80;100.00;64830.25;5075417;28;45464;-65
2021/07/18 03:06:38;;;;;;;;;8.00;7.00;;;;;-146.80;100.00;64830.25;5077186;28;45501;-65
2021/07/18 03:09:04;;;;;;;;;13.75;8.75;;;;;-146.80;100.00;64830.25;5076555;28;46015;-62
2021/07/18 03:11:29;;;;;;;;;13.00;9.25;;;;;-146.80;100.00;64830.25;5076589;28;45421;-65
2021/07/18 03:13:54;;;;;;;;;8.25;8.00;;;;;-146.80;100.00;64830.25;5076505;28;45414;-63
2021/07/18 03:16:19;;;;;;;;;11.00;10.00;;;;;-146.80;100.00;64830.25;5075760;28;45592;-63
2021/07/18 03:18:45;;;;;;;;;10.50;9.00;;;;;-146.80;100.00;64830.25;5075338;28;46370;-63
2021/07/18 03:21:10;;;;;;;;;9.75;8.25;;;;;-146.80;100.00;64830.25;5076323;28;45408;-64
2021/07/18 03:23:36;;;;;;;;;11.75;9.25;;;;;-146.80;100.00;64830.25;5076485;28;45468;-64
2021/07/18 03:26:01;;;;;;;;;11.75;10.00;;;;;-146.80;100.00;64830.25;5076898;28;45637;-62
2021/07/18 03:28:26;;;;;;;;;9.75;9.00;;;;;-146.80;100.00;64830.25;5076422;28;46275;-64
2021/07/18 03:30:52;;;;;;;;;9.50;9.50;;;;;-146.80;100.00;64830.25;5076698;27;45381;-62
2021/07/18 03:33:18;;;;;;;;;10.50;10.00;;;;;-146.80;100.00;64830.25;5075998;28;45352;-63
2021/07/18 03:35:43;;;;;;;;;10.25;9.75;;;;;-146.80;100.00;64830.25;5075308;28;45514;-64
2021/07/18 03:38:09;;;;;;;;;9.25;9.00;;;;;-146.80;100.00;64830.25;5076374;28;46170;-62
2021/07/18 03:40:34;;;;;;;;;13.00;10.00;;;;;-146.80;100.00;64830.25;5076415;28;45361;-65
2021/07/18 03:42:59;;;;;;;;;13.00;11.75;;;;;-146.80;100.00;64830.25;5076319;28;45321;-64
2021/07/18 03:45:25;;;;;;;;;10.75;10.00;;;;;-146.80;100.00;64830.25;5076407;28;45461;-62
2021/07/18 03:47:50;;;;;;;;;12.00;10.50;;;;;-146.80;100.00;64830.25;5075841;28;45424;-63
2021/07/18 03:50:16;;;;;;;;;14.00;9.25;;;;;-146.80;100.00;64830.25;5076113;28;45369;-62
2021/07/18 03:52:42;;;;;;;;;13.00;12.50;;;;;-146.80;100.00;64830.25;5076371;28;45315;-62
2021/07/18 03:55:08;;;;;;;;;10.00;10.00;;;;;-146.80;100.00;64830.25;5075727;28;46681;-63
2021/07/18 03:57:33;;;;;;;;;11.00;9.25;;;;;-146.80;100.00;64830.25;5075632;28;45374;-64
2021/07/18 03:59:59;;;;;;;;;10.75;10.00;;;;;-146.80;100.00;64830.25;5076104;28;45375;-64
2021/07/18 04:02:24;;;;;;;;;10.50;8.25;;;;;-146.80;100.00;64830.25;5076668;28;45629;-64
2021/07/18 04:04:50;;;;;;;;;11.00;9.00;;;;;-146.80;100.00;64830.25;5074530;28;45543;-64
2021/07/18 04:07:17;;;;;;;;;9.25;9.00;;;;;-146.80;100.00;64830.25;5075777;28;46025;-62
2021/07/18 04:09:42;;;;;;;;;14.25;12.50;;;;;-146.80;100.00;64830.25;5075877;28;45530;-64
2021/07/18 04:12:08;;;;;;;;;10.25;9.00;;;;;-146.80;100.00;64830.25;5076156;28;45600;-64
2021/07/18 04:14:33;;;;;;;;;11.25;10.25;;;;;-146.80;100.00;64830.25;5075955;27;45262;-64
2021/07/18 04:16:59;;;;;;;;;15.75;12.50;;;;;-146.80;100.00;64830.25;5074610;28;48043;-62
2021/07/18 04:19:25;;;;;;;;;11.75;11.00;;;;;-146.80;100.00;64830.25;5075765;28;45376;-62
2021/07/18 04:21:50;;;;;;;;;12.50;10.75;;;;;-146.80;100.00;64830.25;5074197;28;45354;-62
2021/07/18 04:24:15;;;;;;;;;13.25;11.75;;;;;-146.80;100.00;64830.25;5075556;28;47017;-63
2021/07/18 04:26:41;;;;;;;;;9.00;9.00;;;;;-146.80;100.00;64830.25;5075273;28;45445;-64
2021/07/18 04:29:06;;;;;;;;;9.00;9.00;;;;;-146.80;100.00;64830.25;5075845;28;45227;-64
2021/07/18 04:31:32;;;;;;;;;16.50;14.00;;;;;-146.80;100.00;64830.25;5075941;28;45288;-63
2021/07/18 04:33:57;;;;;;;;;10.50;10.50;;;;;-146.80;100.00;64830.25;5075901;28;45503;-62
2021/07/18 04:36:22;;;;;;;;;14.00;10.00;;;;;-146.80;100.00;64830.25;5075532;28;46246;-64
2021/07/18 04:38:48;;;;;;;;;13.00;9.50;;;;;-146.80;100.00;64830.25;5074322;28;45959;-64
2021/07/18 04:41:13;;;;;;;;;10.75;10.50;;;;;-146.80;100.00;64830.25;5075841;27;45210;-64
2021/07/18 04:43:38;;;;;;;;;13.50;11.00;;;;;-146.80;100.00;64830.25;5075238;27;45511;-64
2021/07/18 04:46:04;;;;;;;;;13.75;10.00;;;;;-146.80;100.00;64830.25;5075557;28;46436;-61
2021/07/18 04:48:31;;;;;;;;;11.50;10.00;;;;;-146.80;100.00;64830.25;5073637;28;45523;-63
2021/07/18 04:50:56;;;;;;;;;9.25;8.75;;;;;-146.80;100.00;64830.25;5075883;28;45401;-63
2021/07/18 04:53:21;;;;;;;;;11.50;9.50;;;;;-146.80;100.00;64830.25;5075401;28;45377;-62
2021/07/18 04:55:47;;;;;;;;;16.75;12.00;;;;;-146.80;100.00;64830.25;5075361;28;45338;-63
2021/07/18 04:58:12;;;;;;;;;13.50;11.00;;;;;-146.80;100.00;64830.25;5073614;28;45369;-63
2021/07/18 05:00:37;;;;;;;;;13.50;10.25;;;;;-146.80;100.00;64830.25;5077071;28;45396;-62
2021/07/18 05:03:03;;;;;;;;;15.00;11.00;;;;;-146.80;100.00;64830.25;5078850;28;45283;-63
2021/07/18 05:05:29;;;;;;;;;12.00;10.25;;;;;-146.80;100.00;64830.25;5077534;28;47276;-63
2021/07/18 05:08:01;;;;;;;;;13.00;13.00;;;;;-146.80;100.00;64830.25;5078498;28;45384;-63
2021/07/18 05:10:28;;;;;;;;;12.75;8.00;;;;;-146.80;100.00;64830.25;5079257;28;45490;-63
2021/07/18 05:12:56;;;;;;;;;10.25;10.00;;;;;-146.80;100.00;64830.25;5078956;28;45576;-64
2021/07/18 05:15:24;;;;;;;;;12.50;12.00;;;;;-146.80;100.00;64830.25;5078325;28;47146;-64
2021/07/18 05:17:50;;;;;;;;;10.00;8.00;;;;;-146.80;100.00;64830.25;5078250;28;45412;-64
2021/07/18 05:20:17;;;;;;;;;12.00;10.75;;;;;-146.80;100.00;64830.25;5078298;28;45295;-62
2021/07/18 05:22:43;;;;;;;;;11.25;9.00;;;;;-146.80;100.00;64830.25;5078569;28;45485;-63
2021/07/18 05:25:10;;;;;;;;;11.00;9.50;;;;;-146.80;100.00;64830.25;5078164;28;47211;-63
2021/07/18 05:27:37;;;;;;;;;11.25;9.00;;;;;-146.80;100.00;64830.25;5078504;28;45180;-63
2021/07/18 05:30:05;;;;;;;;;9.50;8.00;;;;;-146.80;100.00;64830.25;5077235;28;45278;-64
2021/07/18 05:32:31;;;;;;;;;11.00;9.50;;;;;-146.80;100.00;64830.25;5078313;28;45451;-61
2021/07/18 05:34:56;;;;;;;;;10.75;9.25;;;;;-146.80;100.00;64830.25;5078262;28;45374;-63
2021/07/18 05:37:21;;;;;;;;;12.75;10.75;;;;;-146.80;100.00;64830.25;5077968;28;45306;-63
2021/07/18 05:39:47;;;;;;;;;8.75;8.25;;;;;-146.80;100.00;64830.25;5078485;27;45504;-63
2021/07/18 05:42:12;;;;;;;;;9.50;9.00;;;;;-146.80;100.00;64830.25;5077270;28;45405;-64
2021/07/18 05:44:38;;;;;;;;;9.75;8.75;;;;;-146.80;100.00;64830.25;5077934;28;46011;-63
2021/07/18 05:47:04;;;;;;;;;10.25;9.00;;;;;-146.80;100.00;64830.25;5077771;27;45789;-63
2021/07/18 05:49:29;;;;;;;;;7.25;7.25;;;;;-146.80;100.00;64830.25;5078274;28;45466;-64
2021/07/18 05:51:54;;;;;;;;;14.00;8.50;;;;;-146.80;100.00;64830.25;5078541;28;45664;-65
2021/07/18 05:54:20;;;;;;;;;8.00;7.75;;;;;-146.80;100.00;64830.25;5077553;28;45366;-62
2021/07/18 05:56:45;;;;;;;;;8.00;8.00;;;;;-146.80;100.00;64830.25;5078043;28;45330;-63
2021/07/18 05:59:10;;;;;;;;;7.75;7.25;;;;;-146.80;100.00;64830.25;5077639;28;45398;-65
2021/07/18 06:01:36;;;;;;;;;8.25;7.25;;;;;-146.80;100.00;64830.25;5077954;27;45223;-62
2021/07/18 06:04:01;;;;;;;;;7.75;6.00;;;;;-146.80;100.00;64830.25;5077612;28;45375;-64
2021/07/18 06:06:27;;;;;;;;;11.00;10.00;;;;;-146.80;100.00;64830.25;5078111;28;45263;-63
2021/07/18 06:08:52;;;;;;;;;9.00;8.75;;;;;-146.80;100.00;64830.25;5077488;28;45432;-63
2021/07/18 06:11:18;;;;;;;;;13.25;8.00;;;;;-146.80;100.00;64830.25;5077734;28;45301;-63
2021/07/18 06:13:43;;;;;;;;;11.00;9.00;;;;;-146.80;100.00;64830.25;5077335;28;45971;-63
2021/07/18 06:16:09;;;;;;;;;13.00;9.00;;;;;-146.80;100.00;64830.25;5077489;28;45205;-63
2021/07/18 06:18:34;;;;;;;;;10.00;8.25;;;;;-146.80;100.00;64830.25;5077215;28;45460;-67
2021/07/18 06:21:00;;;;;;;;;9.00;9.00;;;;;-146.80;100.00;64830.25;5078057;28;45597;-66
2021/07/18 06:23:25;;;;;;;;;7.00;4.25;;;;;-146.80;100.00;64830.25;5077147;28;46561;-66
2021/07/18 06:25:51;;;;;;;;;12.50;9.00;;;;;-146.80;100.00;64830.25;5077542;28;45444;-63
2021/07/18 06:28:16;;;;;;;;;11.00;7.00;;;;;-146.80;100.00;64830.25;5077333;28;45323;-63
2021/07/18 06:30:42;;;;;;;;;12.25;10.75;;;;;-146.80;100.00;64830.25;5077890;28;45297;-62
2021/07/18 06:33:07;;;;;;;;;9.50;8.50;;;;;-146.80;100.00;64830.25;5077254;28;45430;-64
2021/07/18 06:35:33;;;;;;;;;8.25;8.25;;;;;-146.80;100.00;64830.25;5077569;27;45311;-62
2021/07/18 06:37:58;;;;;;;;;10.00;7.75;;;;;-146.80;100.00;64830.25;5076989;28;45337;-63
2021/07/18 06:40:23;;;;;;;;;9.00;7.00;;;;;-146.80;100.00;64830.25;5077702;28;45668;-63
2021/07/18 06:42:49;;;;;;;;;9.00;9.00;;;;;-146.80;100.00;64830.25;5077088;28;46191;-69
2021/07/18 06:45:14;;;;;;;;;9.75;9.00;;;;;-146.80;100.00;64830.25;5077156;28;45387;-67
2021/07/18 06:47:40;;;;;;;;;9.75;8.00;;;;;-146.80;100.00;64830.25;5076977;28;45599;-67
2021/07/18 06:50:07;;;;;;;;;7.25;7.25;;;;;-146.80;100.00;64830.25;5077212;28;45555;-64
2021/07/18 06:52:32;;;;;;;;;12.00;9.75;;;;;-146.80;100.00;64830.25;5076772;28;45386;-63
2021/07/18 06:54:57;;;;;;;;;7.25;7.25;;;;;-146.80;100.00;64830.25;5077003;28;45327;-62
2021/07/18 06:57:23;;;;;;;;;10.50;7.50;;;;;-146.80;100.00;64830.25;5076997;28;45242;-63
2021/07/18 06:59:49;;;;;;;;;11.00;9.00;;;;;-146.80;100.00;64830.25;5077172;27;45329;-62
2021/07/18 07:02:18;;;;;;;;;8.50;7.00;;;;;-146.80;100.00;64830.25;5076741;28;45447;-61
2021/07/18 07:04:43;;;;;;;;;7.25;7.00;;;;;-146.80;100.00;64830.25;5075426;28;45400;-63
2021/07/18 07:07:09;;;;;;;;;9.25;7.00;;;;;-146.80;100.00;64830.25;5076687;28;45408;-64
2021/07/18 07:09:34;;;;;;;;;6.25;6.25;;;;;-146.80;100.00;64830.25;5076630;28;45405;-64
2021/07/18 07:12:00;;;;;;;;;11.00;8.00;;;;;-146.80;100.00;64830.25;5076488;28;46235;-68
2021/07/18 07:14:25;;;;;;;;;8.75;7.25;;;;;-146.80;100.00;64830.25;5076706;28;45350;-63
2021/07/18 07:16:51;;;;;;;;;12.00;8.25;;;;;-146.80;100.00;64830.25;5077010;28;45344;-63
2021/07/18 07:19:16;;;;;;;;;5.75;5.75;;;;;-146.80;100.00;64830.25;5076818;28;45624;-63
2021/07/18 07:21:41;;;;;;;;;6.25;6.25;;;;;-146.80;100.00;64830.25;5075963;28;45520;-64
2021/07/18 07:24:07;;;;;;;;;8.00;7.00;;;;;-146.80;100.00;64830.25;5075053;28;46107;-64
2021/07/18 07:26:33;;;;;;;;;5.50;4.50;;;;;-146.80;100.00;64830.25;5076943;27;45303;-61
2021/07/18 07:28:58;;;;;;;;;11.00;7.00;;;;;-146.80;100.00;64830.25;5076928;28;45567;-65
2021/07/18 07:31:24;;;;;;;;;7.25;7.00;;;;;-146.80;100.00;64830.25;5076319;28;46482;-64
2021/07/18 07:33:49;;;;;;;;;9.50;6.50;;;;;-146.80;100.00;64830.25;5075588;28;45396;-70
2021/07/18 07:36:16;;;;;;;;;8.50;6.25;;;;;-146.80;100.00;64830.25;5076595;28;45398;-65
2021/07/18 07:38:42;;;;;;;;;6.25;5.50;;;;;-146.80;100.00;64830.25;5076371;28;45337;-64
2021/07/18 07:41:07;;;;;;;;;5.25;5.25;;;;;-146.80;100.00;64830.25;5076095;28;46010;-63
2021/07/18 07:43:33;;;;;;;;;8.25;8.25;;;;;-146.80;100.00;64830.25;5076095;28;45392;-63
2021/07/18 07:45:58;;;;;;;;;9.50;7.50;;;;;-146.80;100.00;64830.25;5076245;27;45320;-63
2021/07/18 07:48:25;;;;;;;;;5.50;4.00;;;;;-146.80;100.00;64830.25;5075854;28;45345;-64
2021/07/18 07:50:51;;;;;;;;;6.25;5.25;;;;;-146.80;100.00;64830.25;5074912;28;48186;-64
2021/07/18 07:53:16;;;;;;;;;9.50;6.00;;;;;-146.80;100.00;64830.25;5075705;28;45262;-63
2021/07/18 07:55:42;;;;;;;;;6.00;5.00;;;;;-146.80;100.00;64830.25;5076526;27;45286;-62
2021/07/18 07:58:08;;;;;;;;;8.00;4.50;;;;;-146.80;100.00;64830.25;5091516;27;45399;-65
2021/07/18 08:00:33;;;;;;;;;5.00;5.00;;;;;-146.80;100.00;64830.25;5076279;28;45972;-67
2021/07/18 08:02:59;;;;;;;;;5.25;5.25;;;;;-146.80;100.00;64830.25;5075807;28;45201;-65
2021/07/18 08:05:24;;;;;;;;;9.50;5.25;;;;;-146.80;100.00;64830.25;5076059;28;45632;-67
2021/07/18 08:07:50;;;;;;;;;6.00;4.25;;;;;-146.80;100.00;64830.25;5076011;28;45464;-70
2021/07/18 08:10:18;;;;;;;;;4.00;4.00;;;;;-146.80;100.00;64830.25;5075407;28;46121;-75
2021/07/18 08:12:45;;;;;;;;;6.00;6.00;;;;;-146.80;100.00;64830.25;5076231;28;45448;-64
2021/07/18 08:15:13;;;;;;;;;4.00;3.50;;;;;-146.80;100.00;64830.25;5075994;28;45235;-61
2021/07/18 08:17:40;;;;;;;;;5.00;4.00;;;;;-146.80;100.00;64830.25;5075949;27;45217;-65
2021/07/18 08:20:08;;;;;;;;;5.00;4.75;;;;;-146.80;100.00;64830.25;5075631;28;46167;-62
2021/07/18 08:22:34;;;;;;;;;7.00;4.50;;;;;-146.80;100.00;64830.25;5074522;28;45359;-62
2021/07/18 08:24:59;;;;;;;;;6.00;5.00;;;;;-146.80;100.00;64830.25;5075503;28;45423;-63
2021/07/18 08:27:25;;;;;;;;;3.00;2.00;;;;;-146.80;100.00;64830.25;5075992;28;45606;-62
2021/07/18 08:29:50;;;;;;;;;3.50;3.50;;;;;-146.80;100.00;64830.25;5075083;28;46201;-68
2021/07/18 08:32:15;;;;;;;;;5.50;4.75;;;;;-146.80;100.00;64830.25;5075437;28;45398;-63
2021/07/18 08:34:41;;;;;;;;;5.00;5.00;;;;;-146.80;100.00;64830.25;5077696;28;45740;-61
2021/07/18 08:37:06;;;;;;;;;3.00;3.00;;;;;-146.80;100.00;64830.25;5079656;28;45606;-61
2021/07/18 08:39:31;;;;;;;;;5.75;3.50;;;;;-146.80;100.00;64830.25;5078498;27;45551;-62
2021/07/18 08:41:57;;;;;;;;;5.00;5.00;;;;;-146.80;100.00;64830.25;5078920;28;45309;-63
2021/07/18 08:44:23;;;;;;;;;4.00;3.75;;;;;-146.80;100.00;64830.25;5079044;28;45332;-63
2021/07/18 08:46:49;;;;;;;;;8.25;7.00;;;;;-146.80;100.00;64830.25;5077826;28;45291;-62
2021/07/18 08:49:14;;;;;;;;;6.00;4.00;;;;;-146.80;100.00;64830.25;5073487;28;48157;-64
2021/07/18 08:51:40;;;;;;;;;6.75;5.25;;;;;-146.80;100.00;64830.25;5058901;28;45412;-63
2021/07/18 08:54:06;;;;;;;;;4.25;3.75;;;;;-146.80;100.00;64830.25;5058978;28;45444;-62
2021/07/18 08:56:35;;;;;;;;;2.00;2.00;;;;;-146.80;100.00;64830.25;5058952;28;45597;-63
2021/07/18 08:59:03;;;;;;;;;4.75;4.00;;;;;-146.80;100.00;64830.25;5076761;28;47261;-62
2021/07/18 09:01:29;;;;;;;;;5.75;5.00;;;;;-146.80;100.00;64830.25;5078725;28;45241;-60
2021/07/18 09:03:54;;;;;;;;;5.50;4.00;;;;;-146.80;100.00;64830.25;5078245;28;45564;-63
2021/07/18 09:06:20;;;;;;;;;7.50;6.50;;;;;-146.80;100.00;64830.25;5078558;28;45453;-72
2021/07/18 09:08:48;;;;;;;;;3.25;3.00;;;;;-146.80;100.00;64830.25;5078479;28;46119;-70
2021/07/18 09:11:25;;;;;;;;;3.25;2.75;;;;;-146.80;100.00;64830.25;5078323;28;45398;-68
2021/07/18 09:14:08;;;;;;;;;3.75;3.25;;;;;-146.80;100.00;64830.25;5077633;28;45374;-62
2021/07/18 09:16:38;;;;;;;;;4.00;4.00;;;;;-146.80;100.00;64830.25;5076594;28;45734;-61
2021/07/18 09:19:20;;;;;;;;;4.00;3.75;;;;;-146.80;100.00;64830.25;5078056;28;46256;-64
2021/07/18 09:22:04;;;;;;;;;2.75;2.75;;;;;-146.80;100.00;64830.25;5078155;28;45234;-64
2021/07/18 09:25:05;;;;;;;;;3.00;3.00;;;;;-146.80;100.00;64830.25;5078327;28;45401;-67
2021/07/18 09:27:33;;;;;;;;;3.25;3.00;;;;;-146.80;100.00;64830.25;5015862;28;45571;-63
2021/07/18 09:30:11;;;;;;;;;3.50;3.00;;;;;-146.80;100.00;64830.25;5058303;28;46062;-67
2021/07/18 09:32:39;;;;;;;;;4.25;4.25;;;;;-146.80;100.00;64830.25;5076595;28;45370;-63
2021/07/18 09:35:11;;;;;;;;;2.00;2.00;;;;;-146.80;100.00;64830.25;5077563;27;45263;-63
2021/07/18 09:37:40;;;;;;;;;5.00;3.25;;;;;-146.80;100.00;64830.25;5077591;28;45402;-63
2021/07/18 09:40:09;;;;;;;;;5.00;5.00;;;;;-146.80;100.00;64830.25;5077447;28;45595;-64
2021/07/18 09:42:37;;;;;;;;;3.00;2.25;;;;;-146.80;100.00;64830.25;5077778;28;45377;-63
2021/07/18 09:45:12;;;;;;;;;2.00;2.00;;;;;-146.80;100.00;64830.25;5077655;27;45353;-67
2021/07/18 09:47:58;;;;;;;;;12.75;10.00;;;;;-146.80;100.00;64830.25;5064575;28;45449;-64
2021/07/18 09:50:31;;;;;;;;;3.75;2.00;;;;;-146.80;100.00;64830.25;5076124;28;47096;-68
2021/07/18 09:53:16;;;;;;;;;2.50;2.00;;;;;-146.80;100.00;64830.25;5077625;28;45343;-68
2021/07/18 09:55:56;;;;;;;;;3.00;3.00;;;;;-146.80;100.00;64830.25;5077836;27;45428;-67
2021/07/18 09:58:22;;;;;;;;;4.00;2.25;;;;;-146.80;100.00;64830.25;5076695;28;45254;-66
2021/07/18 10:00:48;;;;;;;;;1.00;1.00;;;;;-146.80;100.00;64830.25;5077342;28;46368;-69
2021/07/18 10:03:22;;;;;;;;;4.25;2.75;;;;;-146.80;100.00;64830.25;5077651;27;45832;-69
2021/07/18 10:06:03;;;;;;;;;3.00;3.00;;;;;-146.80;100.00;64830.25;5110546;27;45394;-67
2021/07/18 10:08:28;;;;;;;;;3.75;3.75;;;;;-146.80;100.00;64830.25;5077524;28;45325;-71
2021/07/18 10:10:54;;;;;;;;;3.25;3.00;;;;;-146.80;100.00;64830.25;5078078;28;45891;-70
2021/07/18 10:13:20;;;;;;;;;3.75;2.50;;;;;-146.80;100.00;64830.25;5076369;28;45356;-66
2021/07/18 10:15:45;;;;;;;;;6.00;2.50;;;;;-146.80;100.00;64830.25;5077009;28;45386;-69
2021/07/18 10:18:11;;;;;;;;;5.75;5.50;;;;;-146.80;100.00;64830.25;5077544;28;45537;-69
2021/07/18 10:20:37;;;;;;;;;4.00;2.75;;;;;-146.80;100.00;64830.25;5076512;27;47486;-69
2021/07/18 10:23:03;;;;;;;;;5.50;3.75;;;;;-146.80;100.00;64830.25;5077476;27;45315;-78
2021/07/18 10:25:29;;;;;;;;;3.50;3.50;;;;;-146.80;100.00;64830.25;5092845;27;45419;-75
2021/07/18 10:27:55;;;;;;;;;3.00;3.00;;;;;-146.80;100.00;64830.25;5078037;27;45451;-77
2021/07/18 10:30:23;;;;;;;;;2.25;2.25;;;;;-146.80;100.00;64830.25;5077063;28;46607;-76
2021/07/18 10:32:51;;;;;;;;;2.75;2.75;;;;;-146.80;100.00;64830.25;5075829;28;45409;-76
2021/07/18 10:35:19;;;;;;;;;0.75;0.75;;;;;-146.80;100.00;64830.25;5078108;28;45337;-78
2021/07/18 10:37:44;;;;;;;;;4.50;3.75;;;;;-146.80;100.00;64830.25;5079055;28;45496;-77
2021/07/18 10:40:14;;;;;;;;;1.25;1.25;;;;;-146.80;100.00;64830.25;5076452;27;46606;-73
2021/07/18 10:42:40;;;;;;;;;6.00;4.00;;;;;-146.80;100.00;64830.25;5076813;28;45411;-72
2021/07/18 10:45:17;;;;;;;;;6.25;3.75;;;;;-146.80;100.00;64830.25;5075319;28;45336;-73
2021/07/18 10:48:03;;;;;;;;;4.75;4.75;;;;;-146.80;100.00;64830.25;5076701;28;45432;-68
2021/07/18 10:50:44;;;;;;;;;5.75;2.75;;;;;-146.80;100.00;64830.25;5076204;27;46284;-62
2021/07/18 10:53:18;;;;;;;;;6.00;4.75;;;;;-146.80;100.00;64830.25;5075837;28;45328;-65
2021/07/18 10:55:43;;;;;;;;;6.00;5.75;;;;;-146.80;100.00;64830.25;5076403;28;45251;-65
2021/07/18 10:58:12;;;;;;;;;7.00;6.50;;;;;-146.80;100.00;64830.25;5076285;28;45536;-72
2021/07/18 11:00:48;;;;;;;;;8.75;6.25;;;;;-146.80;100.00;64830.25;5109453;27;47137;-69
2021/07/18 11:03:14;;;;;;;;;7.00;5.75;;;;;-146.80;100.00;64830.25;5076422;28;45525;-70